McAllister, Montana
Current Conditions -  °F | °C
As of 8:56 AM on Thursday 27 Nov 2014 (Local Time) from KBZN Reporting Station
Overcast Overcast  
Wind Chill:   Ceiling: 7500
Heat Index:   Visibility: 10mi
Dew Point: -2°   Wind: 7mph
Humidity: 58%   Direction: 190°S
Pressure: 30.01"   Gusts: NA
Location:  45.44°N, 111.73°W
Report Text: KBZN 271556Z 19006KT 10SM OVC075 06/M02 A3001 RMK AO2 SLP177 T00611017 $
Loading
Personal Weather Stations






























Interactive Weather Map New forecast layout! Learn more

10-Day Weather Forecast

Advertisements
Track Severe Weather on mobile